createdAt,value
2022-10-01T00:01:15.592Z,99515.69
2022-10-01T00:03:43.641Z,99511.41
2022-10-01T00:06:17.886Z,99519.38
2022-10-01T00:08:51.937Z,99518.00
2022-10-01T00:11:24.825Z,99525.16
2022-10-01T00:13:55.989Z,99526.19
2022-10-01T00:16:27.581Z,99526.63
2022-10-01T00:18:55.369Z,99540.94
2022-10-01T00:21:35.398Z,99538.50
2022-10-01T00:24:04.942Z,99541.38
2022-10-01T00:26:34.473Z,99548.53
2022-10-01T00:29:04.708Z,99548.31
2022-10-01T00:31:32.210Z,99555.25
2022-10-01T00:34:00.991Z,99551.56
2022-10-01T00:36:27.864Z,99548.09
2022-10-01T00:39:00.670Z,99548.91
2022-10-01T00:41:33.612Z,99555.47
2022-10-01T00:44:04.201Z,99557.78
2022-10-01T00:46:43.468Z,99564.31
2022-10-01T00:49:19.193Z,99565.59
2022-10-01T00:51:50.983Z,99571.09
2022-10-01T00:54:24.244Z,99569.25
2022-10-01T00:56:55.419Z,99571.09
2022-10-01T00:59:22.473Z,99580.91
2022-10-01T01:01:49.459Z,99579.31
2022-10-01T01:04:19.289Z,99578.91
2022-10-01T01:06:57.934Z,99580.75
2022-10-01T01:09:30.340Z,99581.00
2022-10-01T01:12:29.236Z,99580.19
2022-10-01T01:15:18.344Z,99573.72
2022-10-01T01:18:09.821Z,99578.41
2022-10-01T01:21:28.002Z,99588.22
2022-10-01T01:24:03.987Z,99593.53
2022-10-01T01:26:49.446Z,99592.72
2022-10-01T01:29:39.938Z,99595.81
2022-10-01T01:32:15.055Z,99602.63
2022-10-01T01:34:47.368Z,99607.31
2022-10-01T01:37:19.479Z,99612.63
2022-10-01T01:39:51.199Z,99616.31
2022-10-01T01:42:29.333Z,99615.50
2022-10-01T01:45:00.228Z,99617.34
2022-10-01T01:47:30.649Z,99627.38
2022-10-01T01:49:58.679Z,99618.59
2022-10-01T01:52:25.648Z,99633.72
2022-10-01T01:54:52.612Z,99639.03
2022-10-01T01:57:21.279Z,99639.84
2022-10-01T01:59:48.074Z,99640.06
2022-10-01T02:02:23.711Z,99653.53
2022-10-01T02:05:19.070Z,99643.81
2022-10-01T02:08:16.873Z,99648.31
2022-10-01T02:10:43.576Z,99648.53
2022-10-01T02:13:25.786Z,99658.31
2022-10-01T02:16:30.701Z,99650.19
2022-10-01T02:19:18.870Z,99643.56
2022-10-01T02:21:51.777Z,99649.47
2022-10-01T02:24:57.843Z,99653.97
2022-10-01T02:27:30.617Z,99652.53
2022-10-01T02:29:59.370Z,99655.78
2022-10-01T02:32:30.534Z,99654.38
2022-10-01T02:34:59.143Z,99655.19
2022-10-01T02:37:27.281Z,99648.84
2022-10-01T02:39:56.784Z,99661.34
2022-10-01T02:42:27.390Z,99661.81
2022-10-01T02:44:57.207Z,99653.03
2022-10-01T02:47:34.396Z,99664.09
2022-10-01T02:50:03.005Z,99672.63
2022-10-01T02:52:54.594Z,99677.50
2022-10-01T02:55:35.877Z,99673.22
2022-10-01T02:58:02.715Z,99676.09
2022-10-01T03:00:30.201Z,99669.97
2022-10-01T03:02:57.073Z,99678.16
2022-10-01T03:05:23.914Z,99678.38
2022-10-01T03:07:50.704Z,99683.69
2022-10-01T03:10:17.738Z,99684.50
2022-10-01T03:12:46.788Z,99686.75
2022-10-01T03:15:16.005Z,99689.63
2022-10-01T03:17:43.003Z,99700.66
2022-10-01T03:20:11.028Z,99706.41
2022-10-01T03:22:38.000Z,99709.50
2022-10-01T03:25:05.123Z,99713.75
2022-10-01T03:27:31.964Z,99717.22
2022-10-01T03:29:58.744Z,99713.75
2022-10-01T03:32:25.531Z,99712.16
2022-10-01T03:34:52.410Z,99721.31
2022-10-01T03:37:19.243Z,99725.00
2022-10-01T03:39:46.009Z,99738.50
2022-10-01T03:42:12.796Z,99742.16
2022-10-01T03:44:39.633Z,99747.84
2022-10-01T03:47:06.581Z,99756.81
2022-10-01T03:49:34.509Z,99770.53
2022-10-01T03:52:02.492Z,99765.63
2022-10-01T03:54:31.588Z,99763.59
2022-10-01T03:56:58.797Z,99766.25
2022-10-01T03:59:27.362Z,99785.06
2022-10-01T04:01:54.570Z,99788.72
2022-10-01T04:04:21.417Z,99782.81
2022-10-01T04:06:48.139Z,99782.81
2022-10-01T04:09:14.917Z,99783.03
2022-10-01T04:11:41.671Z,99796.31
2022-10-01T04:14:09.243Z,99805.03
2022-10-01T04:16:36.326Z,99805.47
2022-10-01T04:19:04.538Z,99810.78
2022-10-01T04:21:31.596Z,99818.72
2022-10-01T04:23:59.824Z,99816.69
2022-10-01T04:26:27.232Z,99817.91
2022-10-01T04:28:53.990Z,99827.47
2022-10-01T04:31:26.496Z,99823.81
2022-10-01T04:33:55.455Z,99824.06
2022-10-01T04:36:22.582Z,99821.19
2022-10-01T04:38:56.655Z,99830.56
2022-10-01T04:41:26.435Z,99833.41
2022-10-01T04:43:53.235Z,99830.16
2022-10-01T04:46:20.975Z,99824.47
2022-10-01T04:48:49.560Z,99834.25
2022-10-01T04:51:17.090Z,99840.78
2022-10-01T04:53:43.996Z,99848.31
2022-10-01T04:56:10.879Z,99853.63
2022-10-01T04:58:38.669Z,99861.56
2022-10-01T05:01:08.338Z,99865.28
2022-10-01T05:03:35.143Z,99872.41
2022-10-01T05:06:02.104Z,99873.63
2022-10-01T05:08:28.911Z,99873.41
2022-10-01T05:10:55.787Z,99870.56
2022-10-01T05:13:22.560Z,99875.88
2022-10-01T05:15:52.407Z,99879.75
2022-10-01T05:18:19.588Z,99878.72
2022-10-01T05:20:53.289Z,99886.09
2022-10-01T05:23:20.134Z,99881.59
2022-10-01T05:25:47.270Z,99898.28
2022-10-01T05:28:17.184Z,99904.00
2022-10-01T05:30:56.663Z,99909.31
2022-10-01T05:33:23.383Z,99905.66
2022-10-01T05:35:50.143Z,99911.97
2022-10-01T05:38:16.907Z,99919.28
2022-10-01T05:40:51.722Z,99925.41
2022-10-01T05:43:18.911Z,99938.25
2022-10-01T05:45:45.835Z,99939.06
2022-10-01T05:48:13.076Z,99941.72
2022-10-01T05:50:40.850Z,99946.22
2022-10-01T05:53:10.031Z,99946.41
2022-10-01T05:55:36.867Z,99945.59
2022-10-01T05:58:10.665Z,99952.75
2022-10-01T06:00:39.084Z,99956.81
2022-10-01T06:03:06.553Z,99966.19
2022-10-01T06:05:34.912Z,99959.44
2022-10-01T06:08:04.800Z,99969.66
2022-10-01T06:10:31.844Z,99967.41
2022-10-01T06:13:02.024Z,99974.75
2022-10-01T06:15:30.050Z,99976.97
2022-10-01T06:17:56.894Z,99981.88
2022-10-01T06:20:24.284Z,99989.00
2022-10-01T06:22:56.541Z,99990.84
2022-10-01T06:25:24.060Z,99992.47
2022-10-01T06:27:56.521Z,99997.97
2022-10-01T06:30:27.345Z,99993.31
2022-10-01T06:33:06.035Z,100007.38
2022-10-01T06:35:34.739Z,100013.69
2022-10-01T06:38:02.670Z,100014.28
2022-10-01T06:40:32.352Z,100015.69
2022-10-01T06:42:59.364Z,100023.44
2022-10-01T06:45:27.292Z,100032.63
2022-10-01T06:47:59.881Z,100024.09
2022-10-01T06:50:26.779Z,100032.03
2022-10-01T06:52:53.647Z,100033.63
2022-10-01T06:55:31.961Z,100042.41
2022-10-01T06:58:04.222Z,100047.94
2022-10-01T07:00:33.859Z,100053.41
2022-10-01T07:03:01.225Z,100055.47
2022-10-01T07:05:28.492Z,100063.00
2022-10-01T07:07:55.238Z,100058.50
2022-10-01T07:10:23.332Z,100067.47
2022-10-01T07:12:51.018Z,100068.09
2022-10-01T07:15:20.483Z,100074.84
2022-10-01T07:17:49.962Z,100078.50
2022-10-01T07:20:18.139Z,100078.28
2022-10-01T07:22:46.038Z,100073.63
2022-10-01T07:25:13.370Z,100075.66
2022-10-01T07:27:40.580Z,100081.38
2022-10-01T07:30:08.165Z,100084.84
2022-10-01T07:32:35.557Z,100089.13
2022-10-01T07:35:02.538Z,100099.13
2022-10-01T07:37:29.387Z,100105.44
2022-10-01T07:39:56.130Z,100110.75
2022-10-01T07:42:22.892Z,100114.84
2022-10-01T07:44:49.634Z,100111.38
2022-10-01T07:47:16.696Z,100114.00
2022-10-01T07:49:43.391Z,100118.53
2022-10-01T07:52:13.322Z,100123.41
2022-10-01T07:54:40.505Z,100131.34
2022-10-01T07:57:07.235Z,100130.16
2022-10-01T07:59:34.002Z,100135.25
2022-10-01T08:02:01.205Z,100137.31
2022-10-01T08:04:46.135Z,100137.56
2022-10-01T08:07:12.956Z,100140.19
2022-10-01T08:09:40.284Z,100151.84
2022-10-01T08:12:07.074Z,100154.09
2022-10-01T08:14:33.853Z,100148.78
2022-10-01T08:17:00.694Z,100162.25
2022-10-01T08:19:27.507Z,100162.66
2022-10-01T08:22:05.765Z,100164.72
2022-10-01T08:24:34.750Z,100166.94
2022-10-01T08:27:01.536Z,100169.00
2022-10-01T08:29:28.471Z,100177.75
2022-10-01T08:31:56.378Z,100171.44
2022-10-01T08:34:23.668Z,100184.31
2022-10-01T08:36:54.740Z,100190.22
2022-10-01T08:39:21.864Z,100186.56
2022-10-01T08:42:08.395Z,100195.72
2022-10-01T08:44:44.099Z,100194.31
2022-10-01T08:47:17.712Z,100195.13
2022-10-01T08:49:51.871Z,100199.81
2022-10-01T08:52:26.212Z,100206.97
2022-10-01T08:55:00.513Z,100205.53
2022-10-01T08:57:31.125Z,100208.63
2022-10-01T09:00:04.154Z,100216.16
2022-10-01T09:02:34.252Z,100223.72
2022-10-01T09:05:31.157Z,100225.34
2022-10-01T09:08:43.885Z,100232.50
2022-10-01T09:11:29.625Z,100228.81
2022-10-01T09:14:05.048Z,100224.13
2022-10-01T09:16:45.778Z,100233.31
2022-10-01T09:19:47.681Z,100233.31
2022-10-01T09:23:03.139Z,100234.53
2022-10-01T09:25:31.214Z,100239.66
2022-10-01T09:28:19.700Z,100246.78
2022-10-01T09:31:11.378Z,100262.16
2022-10-01T09:33:42.499Z,100261.72
2022-10-01T09:36:18.883Z,100257.63
2022-10-01T09:38:52.798Z,100269.06
2022-10-01T09:41:20.331Z,100278.47
2022-10-01T09:43:48.027Z,100274.97
2022-10-01T09:46:17.629Z,100273.53
2022-10-01T09:48:49.577Z,100278.41
2022-10-01T09:51:40.404Z,100285.81
2022-10-01T09:54:30.020Z,100285.56
2022-10-01T09:57:40.759Z,100285.38
2022-10-01T10:00:18.178Z,100293.53
2022-10-01T10:02:49.299Z,100292.72
2022-10-01T10:05:19.576Z,100290.06
2022-10-01T10:07:50.336Z,100299.03
2022-10-01T10:10:24.794Z,100290.63
2022-10-01T10:12:58.930Z,100295.50
2022-10-01T10:15:26.567Z,100300.81
2022-10-01T10:18:09.234Z,100300.00
2022-10-01T10:20:59.388Z,100307.13
2022-10-01T10:23:29.234Z,100308.78
2022-10-01T10:26:07.484Z,100303.84
2022-10-01T10:28:46.372Z,100308.72
2022-10-01T10:31:28.222Z,100318.72
2022-10-01T10:34:08.916Z,100313.63
2022-10-01T10:36:38.040Z,100315.66
2022-10-01T10:39:15.309Z,100323.22
2022-10-01T10:41:46.258Z,100322.59
2022-10-01T10:44:19.840Z,100333.41
2022-10-01T10:46:48.129Z,100329.31
2022-10-01T10:49:31.443Z,100335.81
2022-10-01T10:52:01.175Z,100335.59
2022-10-01T10:54:40.813Z,100349.13
2022-10-01T10:57:21.616Z,100344.41
2022-10-01T11:00:02.054Z,100363.41
2022-10-01T11:02:31.590Z,100360.75
2022-10-01T11:05:16.806Z,100366.28
2022-10-01T11:07:45.548Z,100366.91
2022-10-01T11:10:27.622Z,100374.47
2022-10-01T11:13:18.765Z,100375.44
2022-10-01T11:16:14.112Z,100371.31
2022-10-01T11:19:07.908Z,100384.03
2022-10-01T11:21:41.999Z,100367.41
2022-10-01T11:24:34.018Z,100375.78
2022-10-01T11:27:15.784Z,100382.91
2022-10-01T11:30:15.368Z,100384.13
2022-10-01T11:32:46.334Z,100391.47
2022-10-01T11:35:19.691Z,100392.47
2022-10-01T11:37:54.902Z,100399.44
2022-10-01T11:40:27.639Z,100393.06
2022-10-01T11:42:58.022Z,100395.28
2022-10-01T11:45:32.283Z,100400.84
2022-10-01T11:48:06.933Z,100409.63
2022-10-01T11:53:31.233Z,100404.94
2022-10-01T11:56:25.760Z,100414.78
2022-10-01T11:59:04.442Z,100418.47
2022-10-01T12:01:38.668Z,100419.72
2022-10-01T12:04:06.917Z,100418.91
2022-10-01T12:06:41.320Z,100425.63
2022-10-01T12:09:16.989Z,100422.59
2022-10-01T12:11:54.675Z,100423.38
2022-10-01T12:14:31.643Z,100422.16
2022-10-01T12:17:08.865Z,100424.38
2022-10-01T12:19:39.197Z,100413.88
2022-10-01T12:22:27.074Z,100412.63
2022-10-01T12:24:54.586Z,100419.97
2022-10-01T12:27:41.870Z,100420.50
2022-10-01T12:30:12.849Z,100423.50
2022-10-01T12:33:16.874Z,100432.28
2022-10-01T12:35:57.566Z,100435.88
2022-10-01T12:38:57.663Z,100434.00
2022-10-01T12:41:53.589Z,100442.16
2022-10-01T12:44:20.416Z,100449.34
2022-10-01T12:46:56.366Z,100448.53
2022-10-01T12:49:31.025Z,100446.69
2022-10-01T12:52:15.670Z,100459.03
2022-10-01T12:55:00.521Z,100445.94
2022-10-01T12:57:37.071Z,100458.88
2022-10-01T13:00:03.825Z,100458.88
2022-10-01T13:02:45.712Z,100471.19
2022-10-01T13:05:27.932Z,100464.59
2022-10-01T13:07:56.727Z,100460.88
2022-10-01T13:10:48.605Z,100459.84
2022-10-01T13:13:22.311Z,100462.31
2022-10-01T13:15:54.569Z,100468.06
2022-10-01T13:18:40.477Z,100479.78
2022-10-01T13:21:32.482Z,100480.81
2022-10-01T13:24:14.570Z,100482.06
2022-10-01T13:27:04.972Z,100477.53
2022-10-01T13:29:37.663Z,100473.47
2022-10-01T13:32:26.142Z,100469.31
2022-10-01T13:34:54.253Z,100480.22
2022-10-01T13:37:30.005Z,100478.16
2022-10-01T13:40:00.912Z,100468.50
2022-10-01T13:42:29.390Z,100486.56
2022-10-01T13:45:06.849Z,100483.69
2022-10-01T13:47:41.363Z,100496.81
2022-10-01T13:50:24.098Z,100491.28
2022-10-01T13:52:52.196Z,100492.06
2022-10-01T13:55:30.631Z,100500.06
2022-10-01T13:58:21.518Z,100502.75
2022-10-01T14:00:58.112Z,100507.28
2022-10-01T14:03:36.369Z,100500.06
2022-10-01T14:06:06.971Z,100500.06
2022-10-01T14:08:46.507Z,100508.53
2022-10-01T14:11:35.668Z,100502.81
2022-10-01T14:14:53.239Z,100508.34
2022-10-01T14:17:23.137Z,100509.78
2022-10-01T14:19:51.146Z,100506.69
2022-10-01T14:22:55.159Z,100506.22
2022-10-01T14:25:40.331Z,100509.72
2022-10-01T14:28:18.023Z,100508.53
2022-10-01T14:31:02.024Z,100514.47
2022-10-01T14:33:34.739Z,100513.66
2022-10-01T14:36:37.714Z,100514.19
2022-10-01T14:39:15.415Z,100517.31
2022-10-01T14:41:43.267Z,100510.53
2022-10-01T14:44:36.564Z,100512.63
2022-10-01T14:47:23.114Z,100515.13
2022-10-01T14:49:51.488Z,100514.50
2022-10-01T14:52:24.469Z,100523.97
2022-10-01T14:54:59.306Z,100521.13
2022-10-01T14:57:29.050Z,100518.47
2022-10-01T14:59:57.862Z,100513.13
2022-10-01T15:02:26.216Z,100506.34
2022-10-01T15:04:56.476Z,100520.28
2022-10-01T15:07:25.995Z,100521.91
2022-10-01T15:09:52.835Z,100520.66
2022-10-01T15:12:23.895Z,100517.56
2022-10-01T15:14:54.223Z,100515.50
2022-10-01T15:17:27.261Z,100516.31
2022-10-01T15:19:56.609Z,100520.38
2022-10-01T15:22:28.283Z,100519.56
2022-10-01T15:24:59.794Z,100521.22
2022-10-01T15:27:27.339Z,100523.47
2022-10-01T15:29:57.307Z,100531.03
2022-10-01T15:32:25.359Z,100533.47
2022-10-01T15:34:56.571Z,100524.22
2022-10-01T15:37:33.378Z,100528.31
2022-10-01T15:40:01.293Z,100538.53
2022-10-01T15:42:33.055Z,100538.09
2022-10-01T15:45:08.952Z,100541.97
2022-10-01T15:47:40.115Z,100541.75
2022-10-01T15:50:12.710Z,100550.81
2022-10-01T15:52:54.543Z,100546.06
2022-10-01T15:55:27.694Z,100555.06
2022-10-01T15:58:08.943Z,100549.53
2022-10-01T16:01:00.527Z,100558.34
2022-10-01T16:03:47.796Z,100558.56
2022-10-01T16:06:34.128Z,100563.91
2022-10-01T16:09:12.561Z,100563.28
2022-10-01T16:11:51.330Z,100573.19
2022-10-01T16:14:28.403Z,100581.56
2022-10-01T16:17:17.976Z,100584.88
2022-10-01T16:19:45.904Z,100585.25
2022-10-01T16:22:26.510Z,100584.88
2022-10-01T16:25:19.788Z,100593.34
2022-10-01T16:27:49.942Z,100578.19
2022-10-01T16:30:22.666Z,100593.16
2022-10-01T16:32:49.576Z,100610.84
2022-10-01T16:35:26.401Z,100603.88
2022-10-01T16:37:56.239Z,100603.69
2022-10-01T16:40:27.177Z,100606.09
2022-10-01T16:42:54.506Z,100622.34
2022-10-01T16:45:27.904Z,100626.03
2022-10-01T16:47:59.444Z,100619.50
2022-10-01T16:50:26.694Z,100606.38
2022-10-01T16:52:56.867Z,100611.53
2022-10-01T16:55:32.631Z,100620.34
2022-10-01T16:57:59.390Z,100617.91
2022-10-01T17:00:28.276Z,100622.84
2022-10-01T17:02:56.653Z,100620.38
2022-10-01T17:05:33.643Z,100641.09
2022-10-01T17:08:03.815Z,100650.97
2022-10-01T17:10:35.999Z,100649.53
2022-10-01T17:13:03.802Z,100655.50
2022-10-01T17:15:31.390Z,100669.69
2022-10-01T17:17:59.530Z,100661.88
2022-10-01T17:20:29.290Z,100667.66
2022-10-01T17:22:57.283Z,100676.47
2022-10-01T17:25:34.512Z,100668.88
2022-10-01T17:28:03.696Z,100670.53
2022-10-01T17:30:31.369Z,100671.59
2022-10-01T17:33:02.412Z,100679.97
2022-10-01T17:35:30.538Z,100681.25
2022-10-01T17:37:58.473Z,100688.81
2022-10-01T17:40:25.425Z,100686.56
2022-10-01T17:42:52.216Z,100685.38
2022-10-01T17:45:19.089Z,100692.75
2022-10-01T17:47:47.359Z,100705.47
2022-10-01T17:50:15.491Z,100699.09
2022-10-01T17:52:42.707Z,100715.31
2022-10-01T17:55:12.321Z,100714.50
2022-10-01T17:57:39.393Z,100716.34
2022-10-01T18:00:06.879Z,100725.56
2022-10-01T18:02:42.585Z,100727.63
2022-10-01T18:05:15.024Z,100727.63
2022-10-01T18:07:42.894Z,100722.50
2022-10-01T18:10:12.733Z,100717.34
2022-10-01T18:12:40.120Z,100721.06
2022-10-01T18:15:07.728Z,100722.25
2022-10-01T18:17:36.681Z,100726.78
2022-10-01T18:20:05.806Z,100732.31
2022-10-01T18:22:32.675Z,100746.66
2022-10-01T18:24:59.529Z,100751.38
2022-10-01T18:27:26.389Z,100759.38
2022-10-01T18:29:53.874Z,100754.25
2022-10-01T18:32:26.428Z,100769.44
2022-10-01T18:35:02.207Z,100778.03
2022-10-01T18:37:37.755Z,100767.34
2022-10-01T18:40:43.214Z,100765.75
2022-10-01T18:43:25.609Z,100777.19
2022-10-01T18:46:19.024Z,100771.47
2022-10-01T18:49:06.258Z,100777.00
2022-10-01T18:52:44.547Z,100785.22
2022-10-01T18:55:37.707Z,100796.69
2022-10-01T18:58:15.654Z,100797.88
2022-10-01T19:01:01.865Z,100797.28
2022-10-01T19:04:00.426Z,100800.97
2022-10-01T19:06:45.865Z,100801.78
2022-10-01T19:09:32.899Z,100802.44
2022-10-01T19:12:10.920Z,100791.97
2022-10-01T19:15:03.436Z,100799.13
2022-10-01T19:17:43.064Z,100803.00
2022-10-01T19:20:28.070Z,100810.59
2022-10-01T19:23:04.036Z,100808.94
2022-10-01T19:25:36.350Z,100809.75
2022-10-01T19:28:06.066Z,100814.06
2022-10-01T19:30:53.448Z,100816.94
2022-10-01T19:33:21.934Z,100812.03
2022-10-01T19:35:57.379Z,100813.88
2022-10-01T19:38:33.210Z,100824.94
2022-10-01T19:41:12.405Z,100820.22
2022-10-01T19:43:52.988Z,100829.22
2022-10-01T19:46:28.994Z,100840.91
2022-10-01T19:49:05.196Z,100847.03
2022-10-01T19:51:55.687Z,100842.16
2022-10-01T19:54:32.966Z,100850.53
2022-10-01T19:57:09.911Z,100862.66
2022-10-01T19:59:36.649Z,100868.19
2022-10-01T20:02:21.341Z,100867.75
2022-10-01T20:05:12.775Z,100875.31
2022-10-01T20:08:01.519Z,100868.13
2022-10-01T20:11:01.448Z,100859.91
2022-10-01T20:14:05.912Z,100880.59
2022-10-01T20:16:47.497Z,100874.88
2022-10-01T20:19:32.591Z,100891.63
2022-10-01T20:22:22.405Z,100887.50
2022-10-01T20:25:00.244Z,100891.00
2022-10-01T20:27:49.190Z,100905.53
2022-10-01T20:30:20.976Z,100900.81
2022-10-01T20:33:16.657Z,100902.84
2022-10-01T20:35:49.162Z,100904.88
2022-10-01T20:38:21.603Z,100897.47
2022-10-01T20:41:06.432Z,100906.28
2022-10-01T20:43:44.708Z,100913.44
2022-10-01T20:46:32.445Z,100923.28
2022-10-01T20:49:28.253Z,100926.16
2022-10-01T20:52:04.677Z,100931.06
2022-10-01T20:54:37.571Z,100934.56
2022-10-01T20:57:13.212Z,100933.91
2022-10-01T20:59:46.149Z,100940.88
2022-10-01T21:02:26.633Z,100947.03
2022-10-01T21:05:01.923Z,100954.19
2022-10-01T21:07:42.623Z,100958.69
2022-10-01T21:11:01.005Z,100955.84
2022-10-01T21:13:30.553Z,100949.06
2022-10-01T21:16:25.309Z,100946.84
2022-10-01T21:19:01.390Z,100947.69
2022-10-01T21:22:01.648Z,100950.13
2022-10-01T21:24:35.194Z,100953.38
2022-10-01T21:27:32.914Z,100958.91
2022-10-01T21:30:08.496Z,100954.59
2022-10-01T21:33:38.059Z,100950.47
2022-10-01T21:36:23.616Z,100953.97
2022-10-01T21:39:03.542Z,100963.59
2022-10-01T21:41:33.182Z,100958.28
2022-10-01T21:44:18.150Z,100968.28
2022-10-01T21:47:15.533Z,100966.66
2022-10-01T21:49:54.600Z,100960.50
2022-10-01T21:52:37.450Z,100965.19
2022-10-01T21:55:38.351Z,100969.50
2022-10-01T21:58:38.764Z,100977.03
2022-10-01T22:01:18.820Z,100981.16
2022-10-01T22:04:03.975Z,100975.03
2022-10-01T22:07:13.005Z,100979.34
2022-10-01T22:09:50.296Z,100983.81
2022-10-01T22:12:17.414Z,100986.84
2022-10-01T22:14:45.672Z,100994.03
2022-10-01T22:17:18.326Z,101010.34
2022-10-01T22:19:51.236Z,101005.44
2022-10-01T22:22:36.677Z,101003.16
2022-10-01T22:25:04.693Z,101007.44
2022-10-01T22:27:38.921Z,101016.47
2022-10-01T22:30:18.757Z,101022.81
2022-10-01T22:33:43.088Z,101016.22
2022-10-01T22:36:46.760Z,101013.75
2022-10-01T22:39:26.686Z,101013.75
2022-10-01T22:41:57.725Z,101017.03
2022-10-01T22:44:24.652Z,101021.56
2022-10-01T22:47:19.880Z,101028.88
2022-10-01T22:50:04.571Z,101030.72
2022-10-01T22:52:34.066Z,101040.16
2022-10-01T22:55:19.832Z,101037.50
2022-10-01T22:58:05.160Z,101034.63
2022-10-01T23:00:44.378Z,101047.13
2022-10-01T23:03:20.010Z,101051.00
2022-10-01T23:06:20.305Z,101050.16
2022-10-01T23:08:54.854Z,101046.69
2022-10-01T23:11:45.913Z,101051.00
2022-10-01T23:14:23.798Z,101054.47
2022-10-01T23:17:19.669Z,101051.38
2022-10-01T23:20:26.812Z,101039.47
2022-10-01T23:23:29.861Z,101044.34
2022-10-01T23:26:24.228Z,101041.88
2022-10-01T23:28:58.572Z,101056.19
2022-10-01T23:31:57.421Z,101047.19
2022-10-01T23:34:50.775Z,101047.19
2022-10-01T23:37:58.260Z,101039.03
2022-10-01T23:40:57.971Z,101054.00
2022-10-01T23:43:31.628Z,101047.59
2022-10-01T23:46:11.537Z,101054.09
2022-10-01T23:48:46.427Z,101047.34
2022-10-01T23:51:21.686Z,101047.53
2022-10-01T23:54:04.095Z,101060.00
2022-10-01T23:56:49.180Z,101058.34
2022-10-01T23:59:32.398Z,101066.53
